| time (UTC) | temp F | wind direction | speed knots | gust knots | rain 1hr in | rain 24hr in | rain mn in | humidity % | barometer mb |
| 20260906220012 | 98 | 79 | 8.7 | 14.8 | 0.00 | 0.00 | 0.00 | 37 | 1009.5 |
| 20260906214515 | 97 | 38 | 1.7 | 9.6 | 0.00 | 0.00 | 0.00 | 37 | 1009.6 |
| 20260906213013 | 99 | 99 | 7.0 | 12.2 | 0.00 | 0.00 | 0.00 | 35 | 1009.7 |
| 20260906211503 | 100 | 103 | 3.5 | 8.7 | 0.00 | 0.00 | 0.00 | 35 | 1010.0 |
| 20260906210059 | 99 | 98 | 7.0 | 11.3 | 0.00 | 0.00 | 0.00 | 36 | 1010.2 |
| 20260906204556 | 96 | 91 | 6.1 | 10.4 | 0.00 | 0.00 | 0.00 | 39 | 1010.5 |
| 20260906203101 | 94 | 64 | 6.1 | 9.6 | 0.00 | 0.00 | 0.00 | 40 | 1010.5 |
| 20260906201601 | 97 | 70 | 5.2 | 10.4 | 0.00 | 0.00 | 0.00 | 37 | 1010.6 |
| 20260906200051 | 98 | 122 | 4.3 | 14.8 | 0.00 | 0.00 | 0.00 | 36 | 1010.8 |
| 20260906194549 | 95 | 103 | 3.5 | 13.0 | 0.00 | 0.00 | 0.00 | 40 | 1010.8 |
| 20260906193103 | 95 | 88 | 3.5 | 11.3 | 0.00 | 0.00 | 0.00 | 40 | 1011.1 |
| 20260906191545 | 96 | 67 | 7.8 | 13.9 | 0.00 | 0.00 | 0.00 | 39 | 1011.3 |
| 20260906190040 | 94 | 51 | 1.7 | 12.2 | 0.00 | 0.00 | 0.00 | 41 | 1011.4 |
| 20260906184543 | 94 | 77 | 6.1 | 12.2 | 0.00 | 0.00 | 0.00 | 41 | 1011.5 |
| 20260906183036 | 93 | 67 | 5.2 | 13.9 | 0.00 | 0.00 | 0.00 | 41 | 1011.8 |
| 20260906181550 | 94 | 57 | 7.0 | 12.2 | 0.00 | 0.00 | 0.00 | 41 | 1012.0 |
| 20260906180036 | 94 | 53 | 7.0 | 13.9 | 0.00 | 0.00 | 0.00 | 41 | 1012.1 |
| 20260906174536 | 95 | 74 | 10.4 | 15.6 | 0.00 | 0.00 | 0.00 | 40 | 1012.5 |
| 20260906173029 | 96 | 105 | 7.8 | 13.9 | 0.00 | 0.00 | 0.00 | 40 | 1012.5 |
| 20260906171527 | 94 | 78 | 3.5 | 10.4 | 0.00 | 0.00 | 0.00 | 42 | 1012.7 |
| 20260906170022 | 92 | 38 | 2.6 | 11.3 | 0.00 | 0.00 | 0.00 | 45 | 1012.8 |
| 20260906164518 | 92 | 116 | 2.6 | 10.4 | 0.00 | 0.00 | 0.00 | 44 | 1012.8 |
| 20260906163017 | 92 | 47 | 5.2 | 10.4 | 0.00 | 0.00 | 0.00 | 44 | 1012.7 |
| 20260906161516 | 91 | 118 | 3.5 | 9.6 | 0.00 | 0.00 | 0.00 | 45 | 1012.8 |
| 20260906160014 | 92 | 37 | 3.5 | 7.8 | 0.00 | 0.00 | 0.00 | 45 | 1012.9 |
| 20260906154528 | 90 | 202 | 0.0 | 2.6 | 0.00 | 0.00 | 0.00 | 49 | 1012.8 |
| 20260906153015 | 88 | 207 | 1.7 | 7.0 | 0.00 | 0.00 | 0.00 | 53 | 1012.6 |
| 20260906151506 | 88 | 196 | 2.6 | 5.2 | 0.00 | 0.00 | 0.00 | 53 | 1012.5 |
| 20260906150004 | 86 | 154 | 1.7 | 5.2 | 0.00 | 0.00 | 0.00 | 55 | 1012.4 |
| 20260906144613 | 85 | 136 | 1.7 | 5.2 | 0.00 | 0.00 | 0.00 | 58 | 1012.4 |
| 20260906143109 | 85 | 121 | 1.7 | 3.5 | 0.00 | 0.00 | 0.00 | 59 | 1012.5 |
| 20260906141555 | 83 | 90 | 1.7 | 3.5 | 0.00 | 0.00 | 0.00 | 60 | 1012.6 |
| 20260906140054 | 80 | 105 | 0.0 | 0.0 | 0.00 | 0.00 | 0.00 | 66 | 1012.7 |
| 20260906134553 | 76 | 106 | 0.0 | 0.0 | 0.00 | 0.00 | 0.00 | 73 | 1012.4 |
| 20260906133104 | 74 | 106 | 0.0 | 0.0 | 0.00 | 0.00 | 0.00 | 77 | 1012.4 |
| 20260906131550 | 72 | 106 | 0.0 | 0.0 | 0.00 | 0.00 | 0.00 | 80 | 1012.4 |
| 20260906124548 | 70 | 106 | 0.0 | 0.0 | 0.00 | 0.00 | 0.00 | 79 | 1012.3 |
| 20260906123044 | 70 | 106 | 0.0 | 0.0 | 0.00 | 0.00 | 0.00 | 81 | 1012.1 |
| 20260906121542 | 70 | 106 | 0.0 | 0.0 | 0.00 | 0.00 | 0.00 | 78 | 1012.0 |
| 20260906120045 | 70 | 106 | 0.0 | 1.7 | 0.00 | 0.00 | 0.00 | 80 | 1011.8 |
| 20260906114548 | 70 | 106 | 1.7 | 2.6 | 0.00 | 0.00 | 0.00 | 81 | 1011.5 |
| 20260906113036 | 70 | 106 | 0.9 | 1.7 | 0.00 | 0.00 | 0.00 | 77 | 1011.7 |
| 20260906111537 | 70 | 106 | 0.0 | 0.0 | 0.00 | 0.00 | 0.00 | 79 | 1011.5 |
| 20260906110032 | 71 | 106 | 0.0 | 0.0 | 0.00 | 0.00 | 0.00 | 76 | 1011.2 |
| 20260906104534 | 71 | 106 | 0.0 | 0.0 | 0.00 | 0.00 | 0.00 | 72 | 1011.2 |
| 20260906103027 | 71 | 103 | 0.0 | 0.0 | 0.00 | 0.00 | 0.00 | 71 | 1011.0 |
| 20260906101525 | 72 | 103 | 0.0 | 0.0 | 0.00 | 0.00 | 0.00 | 71 | 1010.9 |
| 20260906100027 | 72 | 103 | 0.0 | 0.0 | 0.00 | 0.00 | 0.00 | 71 | 1010.8 |
| 20260906094547 | 73 | 103 | 0.0 | 0.0 | 0.00 | 0.00 | 0.00 | 67 | 1010.8 |
| 20260906093038 | 73 | 103 | 0.0 | 0.0 | 0.00 | 0.00 | 0.00 | 69 | 1010.7 |
| 20260906091516 | 74 | 103 | 0.0 | 0.0 | 0.00 | 0.00 | 0.00 | 68 | 1010.5 |
| 20260906090023 | 74 | 103 | 0.0 | 0.0 | 0.00 | 0.00 | 0.00 | 68 | 1010.5 |
| 20260906084510 | 76 | 103 | 0.0 | 1.7 | 0.00 | 0.00 | 0.00 | 64 | 1010.6 |
| 20260906083006 | 77 | 103 | 0.9 | 1.7 | 0.00 | 0.00 | 0.00 | 63 | 1010.4 |
| 20260906081508 | 78 | 103 | 0.0 | 0.0 | 0.00 | 0.00 | 0.00 | 61 | 1010.6 |
| 20260906074557 | 80 | 103 | 0.0 | 2.6 | 0.00 | 0.00 | 0.00 | 59 | 1010.7 |
| 20260906073053 | 80 | 105 | 1.7 | 3.5 | 0.00 | 0.00 | 0.00 | 57 | 1010.8 |
| 20260906071549 | 81 | 104 | 0.9 | 3.5 | 0.00 | 0.00 | 0.00 | 55 | 1010.9 |
| 20260906070048 | 81 | 112 | 2.6 | 6.1 | 0.00 | 0.00 | 0.00 | 55 | 1010.9 |
| 20260906064544 | 82 | 114 | 2.6 | 7.0 | 0.00 | 0.00 | 0.00 | 54 | 1010.9 |
| 20260906063041 | 82 | 100 | 2.6 | 6.1 | 0.00 | 0.00 | 0.00 | 52 | 1011.2 |
| 20260906061539 | 83 | 108 | 4.3 | 7.0 | 0.00 | 0.00 | 0.00 | 52 | 1011.4 |
| 20260906060036 | 83 | 101 | 1.7 | 7.8 | 0.00 | 0.00 | 0.00 | 52 | 1011.5 |
| 20260906054537 | 83 | 120 | 0.9 | 3.5 | 0.00 | 0.00 | 0.00 | 51 | 1011.7 |
| 20260906053030 | 83 | 93 | 0.9 | 5.2 | 0.00 | 0.00 | 0.00 | 50 | 1011.7 |
| 20260906051532 | 84 | 94 | 2.6 | 6.1 | 0.00 | 0.00 | 0.00 | 49 | 1011.7 |
| 20260906050026 | 84 | 91 | 0.9 | 6.1 | 0.00 | 0.00 | 0.00 | 49 | 1011.6 |
| 20260906044525 | 84 | 92 | 1.7 | 6.1 | 0.00 | 0.00 | 0.00 | 49 | 1011.5 |
| 20260906043025 | 85 | 88 | 0.9 | 5.2 | 0.00 | 0.00 | 0.00 | 49 | 1011.3 |
| 20260906041524 | 85 | 86 | 2.6 | 7.0 | 0.00 | 0.00 | 0.00 | 48 | 1011.3 |
| 20260906040030 | 86 | 88 | 3.5 | 7.0 | 0.00 | 0.00 | 0.00 | 48 | 1011.2 |
| 20260906034523 | 86 | 92 | 2.6 | 7.0 | 0.00 | 0.00 | 0.00 | 47 | 1011.2 |
| 20260906033035 | 87 | 82 | 4.3 | 8.7 | 0.00 | 0.00 | 0.00 | 46 | 1011.0 |
| 20260906031529 | 88 | 90 | 2.6 | 7.8 | 0.00 | 0.00 | 0.00 | 46 | 1010.7 |
| 20260906030021 | 89 | 90 | 4.3 | 10.4 | 0.00 | 0.00 | 0.00 | 45 | 1010.5 |
| 20260906024539 | 89 | 78 | 7.0 | 13.0 | 0.00 | 0.00 | 0.00 | 45 | 1010.4 |
| 20260906023024 | 90 | 82 | 5.2 | 11.3 | 0.00 | 0.00 | 0.00 | 44 | 1010.3 |
| 20260906021519 | 91 | 91 | 6.1 | 10.4 | 0.00 | 0.00 | 0.00 | 44 | 1010.2 |
| 20260906020019 | 91 | 84 | 7.0 | 10.4 | 0.00 | 0.00 | 0.00 | 42 | 1010.0 |
| 20260906014529 | 92 | 70 | 7.8 | 11.3 | 0.00 | 0.00 | 0.00 | 41 | 1009.8 |
| 20260906013035 | 93 | 83 | 3.5 | 6.1 | 0.00 | 0.00 | 0.00 | 40 | 1009.5 |
| 20260906011517 | 94 | 86 | 2.6 | 7.8 | 0.00 | 0.00 | 0.00 | 40 | 1009.2 |
| 20260906010020 | 95 | 86 | 5.2 | 10.4 | 0.00 | 0.00 | 0.00 | 39 | 1009.2 |
| 20260906004516 | 96 | 105 | 5.2 | 10.4 | 0.00 | 0.00 | 0.00 | 38 | 1009.2 |
| 20260906003015 | 97 | 65 | 4.3 | 8.7 | 0.00 | 0.00 | 0.00 | 37 | 1009.1 |
| 20260906001514 | 97 | 83 | 4.3 | 8.7 | 0.00 | 0.00 | 0.00 | 37 | 1009.0 |
| 20260906000014 | 98 | 96 | 3.5 | 10.4 | 0.00 | 0.00 | 0.00 | 36 | 1009.0 |
| 20260905234513 | 98 | 90 | 5.2 | 10.4 | 0.00 | 0.00 | 0.00 | 35 | 1008.8 |
| 20260905233013 | 98 | 90 | 6.1 | 11.3 | 0.00 | 0.00 | 0.00 | 36 | 1008.7 |
| 20260905231514 | 99 | 71 | 4.3 | 10.4 | 0.00 | 0.00 | 0.00 | 35 | 1008.7 |
| 20260905230011 | 99 | 44 | 4.3 | 9.6 | 0.00 | 0.00 | 0.00 | 36 | 1008.8 |
| 20260905224510 | 99 | 69 | 6.1 | 11.3 | 0.00 | 0.00 | 0.00 | 35 | 1008.8 |
| 20260905223005 | 100 | 78 | 3.5 | 11.3 | 0.00 | 0.00 | 0.00 | 35 | 1008.9 |
| 20260905221502 | 99 | 37 | 1.7 | 8.7 | 0.00 | 0.00 | 0.00 | 36 | 1009.0 |